KMKO/MKO METAR and TAF weather

Enter ICAO airport designator
Station Type Date Time Source
KMKO METAR 2020/01/29 03:44 UTC NOAA

KMKO 290344Z AUTO 36008KT 3SM -RA BR BKN004 OVC010 07/07 A2992 RMK AO2 CIG 002V006 P0003 T00720067


Station Type Date Time Source
KMKO Decoded METAR 2020/01/29 03:44 UTC NOAA

MUSKOGEE DAVIS FIELD, OK, United States (KMKO) 35-39N 95-22W 185M
Jan 28, 2020 - 10:44 PM EST / 2020.01.29 0344 UTC
Wind: from the N (360 degrees) at 9 MPH (8 KT):0
Visibility: 3 mile(s):0
Sky conditions: overcast
Weather: light rain; mist
Precipitation last hour: 0.03 inches
Temperature: 45.0 F (7.2 C)
Dew Point: 44.1 F (6.7 C)
Relative Humidity: 96%
Pressure (altimeter): 29.92 in. Hg (1013 hPa)
ob: KMKO 290344Z AUTO 36008KT 3SM -RA BR BKN004 OVC010 07/07 A2992 RMK AO2 CIG 002V006 P0003 T00720067
cycle: 3

Station Type Date Time Source
KMKO TAF UTC NOAA

Error!

Example: see airport list